Time;durP1;ratioP1;P1;durP2;ratioP2;P2;SDS_P1;SDS_P2;PMS_P1;PMS_P2;Temp;Humidity;BMP_temperature;BMP_pressure;BME280_temperature;BME280_humidity;BME280_pressure;Samples;Min_cycle;Max_cycle;Signal;HPM_P1;HPM_P2
2022/08/20 00:02:24;;;;;;;22.98;4.38;;;26.10;71.30;;;;;;5066482;28;20098;-80
2022/08/20 00:04:50;;;;;;;17.70;4.15;;;26.10;71.00;;;;;;5065801;28;20583;-82
2022/08/20 00:07:16;;;;;;;17.98;3.85;;;26.20;70.90;;;;;;5066847;28;20024;-83
2022/08/20 00:09:42;;;;;;;13.57;4.70;;;26.20;70.60;;;;;;5065648;28;20485;-82
2022/08/20 00:12:09;;;;;;;15.95;3.63;;;26.20;70.70;;;;;;5065731;28;20029;-83
2022/08/20 00:14:36;;;;;;;12.10;3.60;;;26.20;70.10;;;;;;5066282;28;20132;-84
2022/08/20 00:17:02;;;;;;;17.75;4.70;;;26.30;69.50;;;;;;5066209;28;20121;-81
2022/08/20 00:19:28;;;;;;;14.38;3.47;;;26.40;68.40;;;;;;5067418;28;20027;-82
2022/08/20 00:21:54;;;;;;;13.18;3.53;;;26.40;68.30;;;;;;5066013;28;20028;-82
2022/08/20 00:24:20;;;;;;;16.77;4.10;;;26.50;68.20;;;;;;5067196;28;20501;-83
2022/08/20 00:26:45;;;;;;;18.35;4.15;;;26.50;66.90;;;;;;5066542;28;20459;-82
2022/08/20 00:29:11;;;;;;;17.08;4.22;;;26.60;66.50;;;;;;5065137;28;20143;-83
2022/08/20 00:31:37;;;;;;;16.30;3.30;;;26.70;66.40;;;;;;5066530;28;20067;-81
2022/08/20 00:34:03;;;;;;;15.68;3.33;;;26.70;66.30;;;;;;5067989;28;20066;-83
2022/08/20 00:36:28;;;;;;;11.55;3.38;;;26.70;66.10;;;;;;5069829;28;20470;-82
2022/08/20 00:38:54;;;;;;;10.38;2.88;;;26.70;66.40;;;;;;5070614;28;20575;-80
2022/08/20 00:41:25;;;;;;;13.80;3.28;;;26.70;66.50;;;;;;5068874;28;20460;-83
2022/08/20 00:44:02;;;;;;;20.73;4.10;;;26.70;66.90;;;;;;5070800;28;20028;-82
2022/08/20 00:46:29;;;;;;;15.40;3.22;;;26.70;66.10;;;;;;5069278;28;20489;-82
2022/08/20 00:48:57;;;;;;;13.32;3.67;;;26.70;66.20;;;;;;5071370;28;20033;-84
2022/08/20 00:51:40;;;;;;;16.70;3.65;;;26.90;64.70;;;;;;5070749;28;20405;-84
2022/08/20 00:54:09;;;;;;;13.70;3.13;;;27.00;64.50;;;;;;5070379;28;20047;-82
2022/08/20 00:56:36;;;;;;;12.98;3.60;;;27.10;63.60;;;;;;5070540;28;20067;-83
2022/08/20 00:59:10;;;;;;;13.30;3.22;;;27.20;64.30;;;;;;5069964;28;20078;-83
2022/08/20 01:01:38;;;;;;;11.52;3.38;;;27.10;65.50;;;;;;5069042;28;20488;-81
2022/08/20 01:04:04;;;;;;;16.88;3.65;;;27.00;65.90;;;;;;5068927;28;20056;-82
2022/08/20 01:06:30;;;;;;;9.85;2.97;;;26.90;66.10;;;;;;5068533;28;20031;-80
2022/08/20 01:08:56;;;;;;;10.68;3.83;;;26.80;66.40;;;;;;5068457;28;20028;-80
2022/08/20 01:11:31;;;;;;;15.85;4.05;;;26.70;66.80;;;;;;5070563;28;20062;-81
2022/08/20 01:13:57;;;;;;;15.38;3.80;;;26.60;66.90;;;;;;5070547;28;20020;-82
2022/08/20 01:16:29;;;;;;;12.57;3.35;;;26.50;67.00;;;;;;5069056;28;20078;-82
2022/08/20 01:18:56;;;;;;;14.73;3.58;;;26.50;67.30;;;;;;5087486;28;20377;-82
2022/08/20 01:21:30;;;;;;;14.30;3.90;;;26.40;67.60;;;;;;5105907;28;20035;-82
2022/08/20 01:24:19;;;;;;;13.57;3.47;;;26.40;68.20;;;;;;5088023;28;20024;-82
2022/08/20 01:26:48;;;;;;;19.00;3.92;;;26.30;68.10;;;;;;5071497;28;20039;-80
2022/08/20 01:29:28;;;;;;;15.13;3.92;;;26.20;68.40;;;;;;5068036;28;20055;-82
2022/08/20 01:31:59;;;;;;;26.58;4.47;;;26.10;68.30;;;;;;5068518;28;20040;-83
2022/08/20 01:34:26;;;;;;;10.65;2.85;;;26.20;68.50;;;;;;5065422;28;20078;-81
2022/08/20 01:36:54;;;;;;;15.57;3.65;;;26.20;67.80;;;;;;5049308;28;20037;-82
2022/08/20 01:39:23;;;;;;;17.15;3.42;;;26.40;67.20;;;;;;5067779;28;20025;-83
2022/08/20 01:42:14;;;;;;;19.35;3.45;;;26.50;66.40;;;;;;5069028;28;20132;-83
2022/08/20 01:44:43;;;;;;;18.88;3.40;;;26.80;65.80;;;;;;5068882;28;20051;-83
2022/08/20 01:47:18;;;;;;;10.70;3.17;;;27.00;65.00;;;;;;5064532;28;20461;-82
2022/08/20 01:49:50;;;;;;;10.73;3.30;;;27.10;64.50;;;;;;5057969;28;20048;-83
2022/08/20 01:52:27;;;;;;;15.40;3.03;;;27.20;63.30;;;;;;5064885;28;20052;-82
2022/08/20 01:54:53;;;;;;;9.80;3.08;;;27.40;62.40;;;;;;5048967;28;20115;-82
2022/08/20 01:57:19;;;;;;;17.35;2.80;;;27.60;62.30;;;;;;5055036;28;20751;-83
2022/08/20 01:59:48;;;;;;;16.45;3.75;;;27.60;62.30;;;;;;5068823;28;20024;-83
2022/08/20 02:02:14;;;;;;;17.33;3.80;;;27.60;62.80;;;;;;5071851;28;20031;-85
2022/08/20 02:04:41;;;;;;;13.43;3.00;;;27.70;62.90;;;;;;5069950;28;20036;-85
2022/08/20 02:07:13;;;;;;;12.23;3.22;;;27.70;62.90;;;;;;5068189;28;20583;-84
2022/08/20 02:09:40;;;;;;;19.73;3.42;;;27.70;62.90;;;;;;5069565;28;20393;-85
2022/08/20 02:12:08;;;;;;;25.80;3.75;;;27.70;63.10;;;;;;5070390;28;20028;-84
2022/08/20 02:14:41;;;;;;;19.02;3.45;;;27.80;63.20;;;;;;5069193;28;20499;-84
2022/08/20 02:17:07;;;;;;;10.38;2.70;;;27.80;63.30;;;;;;5070409;28;20470;-85
2022/08/20 02:19:39;;;;;;;11.13;3.35;;;27.70;63.40;;;;;;5069087;28;20025;-83
2022/08/20 02:22:48;;;;;;;15.95;3.28;;;27.70;63.20;;;;;;5069683;28;20074;-84
2022/08/20 02:25:15;;;;;;;13.93;3.13;;;27.60;63.10;;;;;;5073828;28;20020;-84
2022/08/20 02:27:44;;;;;;;12.98;3.97;;;27.70;63.30;;;;;;5066980;28;20032;-84
2022/08/20 02:30:27;;;;;;;12.25;3.33;;;27.60;63.50;;;;;;5070184;28;20027;-84
2022/08/20 02:32:53;;;;;;;17.08;3.22;;;27.50;63.40;;;;;;5070616;28;20028;-85
2022/08/20 02:35:19;;;;;;;14.13;3.10;;;27.50;63.60;;;;;;5069934;28;20389;-85
2022/08/20 02:37:45;;;;;;;16.85;3.30;;;27.50;63.70;;;;;;5068939;28;20073;-84
2022/08/20 02:40:15;;;;;;;9.20;2.95;;;27.40;63.90;;;;;;5069387;28;20653;-84
2022/08/20 02:42:42;;;;;;;12.80;3.08;;;27.50;63.80;;;;;;5070653;28;20495;-84
2022/08/20 02:45:11;;;;;;;12.65;2.97;;;27.50;63.60;;;;;;5069564;28;20629;-84
2022/08/20 02:47:38;;;;;;;12.15;3.17;;;27.50;63.80;;;;;;5069809;28;20474;-84
2022/08/20 02:50:05;;;;;;;12.18;2.97;;;27.50;63.80;;;;;;5069718;28;20028;-84
2022/08/20 02:52:31;;;;;;;14.27;3.20;;;27.40;63.90;;;;;;5068600;28;20493;-83
2022/08/20 02:54:57;;;;;;;12.88;2.40;;;27.40;64.70;;;;;;5068431;28;20035;-84
2022/08/20 02:57:23;;;;;;;15.15;3.00;;;27.40;63.80;;;;;;5069032;28;20025;-84
2022/08/20 02:59:51;;;;;;;12.30;3.45;;;27.30;64.00;;;;;;5068947;28;20158;-84
2022/08/20 03:02:17;;;;;;;13.68;2.80;;;27.30;64.10;;;;;;5068910;28;20052;-85
2022/08/20 03:04:43;;;;;;;11.25;2.58;;;27.30;64.20;;;;;;5068998;28;20044;-83
2022/08/20 03:07:10;;;;;;;18.88;3.58;;;27.20;64.40;;;;;;5068549;28;20021;-84
2022/08/20 03:09:36;;;;;;;18.70;3.95;;;27.20;64.40;;;;;;5068529;28;20520;-84
2022/08/20 03:12:04;;;;;;;16.60;4.70;;;27.20;64.60;;;;;;5069133;28;20047;-84
2022/08/20 03:14:30;;;;;;;11.82;3.70;;;27.20;64.80;;;;;;5068374;28;20032;-83
2022/08/20 03:16:55;;;;;;;14.50;3.45;;;27.30;64.70;;;;;;5069039;28;20036;-84
2022/08/20 03:19:21;;;;;;;20.75;3.53;;;27.30;64.80;;;;;;5069526;28;20040;-84
2022/08/20 03:21:48;;;;;;;9.95;3.10;;;27.30;65.00;;;;;;5076620;28;20036;-83
2022/08/20 03:24:14;;;;;;;10.93;3.42;;;27.20;65.00;;;;;;5105483;28;20032;-84
2022/08/20 03:26:39;;;;;;;7.10;2.90;;;27.20;65.30;;;;;;5089428;28;20032;-84
2022/08/20 03:29:05;;;;;;;10.10;3.20;;;27.20;65.50;;;;;;5085197;28;20224;-84
2022/08/20 03:31:31;;;;;;;13.65;4.05;;;27.20;65.80;;;;;;5068645;28;20042;-83
2022/08/20 03:33:56;;;;;;;11.23;3.53;;;27.10;66.00;;;;;;5069436;28;20047;-83
2022/08/20 03:36:24;;;;;;;13.85;4.72;;;27.10;66.30;;;;;;5067560;28;20377;-83
2022/08/20 03:38:50;;;;;;;14.25;3.80;;;27.20;66.40;;;;;;5084967;28;20081;-83
2022/08/20 03:41:15;;;;;;;22.00;4.30;;;27.10;66.60;;;;;;5088285;28;20440;-84
2022/08/20 03:43:41;;;;;;;14.00;3.80;;;27.10;66.80;;;;;;5088046;28;20500;-84
2022/08/20 03:46:07;;;;;;;13.60;4.00;;;27.10;67.00;;;;;;5076738;28;20078;-83
2022/08/20 03:48:33;;;;;;;16.42;4.65;;;27.10;67.20;;;;;;5069504;28;20031;-83
2022/08/20 03:50:59;;;;;;;11.23;4.78;;;27.00;67.40;;;;;;5066950;28;20040;-84
2022/08/20 03:53:30;;;;;;;16.55;4.05;;;27.00;67.60;;;;;;5067521;28;20078;-84
2022/08/20 03:55:59;;;;;;;12.20;4.32;;;27.00;67.80;;;;;;5067712;28;20086;-84
2022/08/20 03:58:27;;;;;;;11.25;4.00;;;26.90;68.10;;;;;;5068985;28;20024;-84
2022/08/20 04:00:54;;;;;;;11.27;4.43;;;26.90;68.40;;;;;;5067480;28;20029;-84
2022/08/20 04:03:20;;;;;;;11.20;4.55;;;26.80;68.50;;;;;;5068106;28;20075;-84
2022/08/20 04:05:46;;;;;;;10.95;4.20;;;26.80;69.00;;;;;;5067624;28;20029;-82
2022/08/20 04:08:21;;;;;;;18.48;4.55;;;26.80;69.00;;;;;;5068364;28;20021;-84
2022/08/20 04:10:49;;;;;;;16.42;4.60;;;26.70;68.50;;;;;;5069595;28;20036;-84
2022/08/20 04:13:17;;;;;;;18.13;5.03;;;26.60;68.90;;;;;;5072123;28;20394;-84
2022/08/20 04:15:44;;;;;;;16.40;4.18;;;26.50;68.40;;;;;;5072124;28;20162;-84
2022/08/20 04:18:11;;;;;;;20.38;3.95;;;26.40;68.60;;;;;;5071594;28;20032;-84
2022/08/20 04:20:40;;;;;;;14.52;4.28;;;26.40;68.70;;;;;;5071760;28;20024;-84
2022/08/20 04:23:07;;;;;;;13.95;3.75;;;26.40;68.90;;;;;;5071071;28;20035;-83
2022/08/20 04:25:35;;;;;;;17.67;4.00;;;26.30;69.00;;;;;;5071291;28;20041;-84
2022/08/20 04:28:04;;;;;;;22.95;5.68;;;26.30;69.50;;;;;;5071368;28;20128;-84
2022/08/20 04:30:31;;;;;;;18.35;3.38;;;26.30;70.00;;;;;;5071492;28;20051;-84
2022/08/20 04:32:58;;;;;;;16.02;4.10;;;26.30;70.10;;;;;;5070774;28;20401;-83
2022/08/20 04:35:25;;;;;;;11.43;4.07;;;26.20;70.50;;;;;;5071042;28;20021;-84
2022/08/20 04:37:58;;;;;;;14.48;3.60;;;26.20;71.00;;;;;;5070750;28;20089;-82
2022/08/20 04:43:08;;;;;;;13.15;3.80;;;26.30;70.80;;;;;;5072420;28;20032;-84
2022/08/20 04:45:34;;;;;;;10.15;4.28;;;26.40;71.00;;;;;;5070874;28;20024;-84
2022/08/20 04:48:04;;;;;;;11.85;3.20;;;26.40;71.80;;;;;;5070818;28;20791;-83
2022/08/20 04:50:34;;;;;;;11.68;3.60;;;26.50;71.80;;;;;;5070062;28;20120;-84
2022/08/20 04:53:05;;;;;;;13.77;3.88;;;26.50;71.60;;;;;;5071002;28;20033;-84
2022/08/20 04:55:32;;;;;;;12.10;3.10;;;26.50;71.90;;;;;;5070255;28;20512;-83
2022/08/20 04:58:03;;;;;;;10.18;3.90;;;26.60;72.80;;;;;;5070388;28;20086;-83
2022/08/20 05:00:30;;;;;;;13.93;4.75;;;26.60;73.50;;;;;;5072225;28;20033;-84
2022/08/20 05:02:56;;;;;;;14.70;4.18;;;26.70;72.90;;;;;;5071385;28;20024;-83
2022/08/20 05:05:21;;;;;;;11.90;3.85;;;26.60;72.20;;;;;;5070906;28;20397;-84
2022/08/20 05:07:47;;;;;;;21.85;4.32;;;26.60;72.70;;;;;;5071952;28;20055;-84
2022/08/20 05:10:17;;;;;;;20.00;3.70;;;26.70;73.40;;;;;;5071553;28;20527;-84
2022/08/20 05:12:43;;;;;;;14.38;3.58;;;26.70;73.10;;;;;;5070791;28;20032;-84
2022/08/20 05:15:10;;;;;;;11.18;3.78;;;26.70;72.70;;;;;;5070789;28;20553;-84
2022/08/20 05:17:37;;;;;;;16.77;4.10;;;26.80;72.60;;;;;;5070869;28;20028;-82
2022/08/20 05:20:05;;;;;;;19.65;4.55;;;26.90;72.50;;;;;;5070165;28;20032;-83
2022/08/20 05:22:30;;;;;;;12.38;3.63;;;27.00;73.00;;;;;;5070098;28;20512;-83
2022/08/20 05:24:58;;;;;;;16.13;3.30;;;27.00;73.40;;;;;;5070283;28;20306;-84
2022/08/20 05:27:25;;;;;;;12.40;3.00;;;27.10;72.90;;;;;;5070340;28;20020;-84
2022/08/20 05:30:05;;;;;;;12.70;2.63;;;27.20;72.60;;;;;;5070067;28;20056;-84
2022/08/20 05:32:32;;;;;;;14.60;4.20;;;27.40;72.50;;;;;;5070194;28;20047;-84
2022/08/20 05:34:59;;;;;;;7.95;3.45;;;27.50;71.50;;;;;;5072987;28;20020;-84
2022/08/20 05:37:25;;;;;;;12.07;3.80;;;27.70;71.20;;;;;;5074373;28;20374;-84
2022/08/20 05:39:50;;;;;;;10.85;3.70;;;27.90;70.70;;;;;;5070779;28;20032;-82
2022/08/20 05:42:16;;;;;;;16.85;4.03;;;28.00;70.30;;;;;;5070943;28;20024;-83
2022/08/20 05:44:42;;;;;;;11.13;3.55;;;28.10;70.10;;;;;;5070224;28;20594;-85
2022/08/20 05:47:09;;;;;;;15.85;3.88;;;28.10;70.30;;;;;;5070047;28;20446;-84
2022/08/20 05:49:36;;;;;;;10.68;3.63;;;28.20;70.00;;;;;;5070725;28;20024;-84
2022/08/20 05:52:02;;;;;;;17.77;4.85;;;28.10;69.70;;;;;;5070020;28;20036;-84
2022/08/20 05:54:27;;;;;;;20.60;4.10;;;27.90;71.40;;;;;;5070219;28;20481;-84
2022/08/20 05:56:54;;;;;;;15.75;4.43;;;27.80;71.60;;;;;;5070261;28;20044;-84
2022/08/20 05:59:21;;;;;;;14.63;3.40;;;27.70;71.60;;;;;;5070988;28;20028;-84
2022/08/20 06:01:47;;;;;;;14.60;4.38;;;27.60;72.00;;;;;;5069358;28;20435;-84
2022/08/20 06:04:30;;;;;;;16.10;4.15;;;27.60;72.10;;;;;;5070605;28;20039;-84
2022/08/20 06:07:05;;;;;;;23.35;4.60;;;27.50;71.90;;;;;;5069550;28;20036;-84
2022/08/20 06:09:31;;;;;;;16.40;3.92;;;27.50;71.00;;;;;;5069266;28;20039;-84
2022/08/20 06:11:58;;;;;;;11.43;3.80;;;27.40;71.20;;;;;;5069290;28;20036;-84
2022/08/20 06:14:24;;;;;;;12.90;3.42;;;27.40;72.10;;;;;;5069091;28;20763;-84
2022/08/20 06:16:50;;;;;;;10.38;3.78;;;27.40;72.70;;;;;;5068928;28;20036;-84
2022/08/20 06:19:16;;;;;;;10.88;3.60;;;27.40;73.60;;;;;;5068800;28;20028;-83
2022/08/20 06:21:41;;;;;;;18.27;4.18;;;27.40;73.40;;;;;;5068919;28;20111;-84
2022/08/20 06:24:08;;;;;;;21.85;4.18;;;27.40;73.40;;;;;;5069438;28;20384;-84
2022/08/20 06:26:33;;;;;;;17.70;4.28;;;27.40;73.60;;;;;;5068767;28;20032;-84
2022/08/20 06:29:04;;;;;;;13.23;3.35;;;27.50;73.70;;;;;;5068839;28;20052;-83
2022/08/20 06:31:29;;;;;;;12.13;3.13;;;27.40;73.50;;;;;;5068946;28;20048;-83
2022/08/20 06:33:55;;;;;;;11.63;3.83;;;27.40;73.20;;;;;;5068948;28;20036;-84
2022/08/20 06:36:21;;;;;;;12.23;4.07;;;27.40;72.70;;;;;;5068181;28;20124;-84
2022/08/20 06:38:47;;;;;;;9.90;3.60;;;27.40;72.20;;;;;;5068732;28;20108;-83
2022/08/20 06:41:13;;;;;;;10.23;3.53;;;27.40;72.30;;;;;;5068688;28;20040;-84
2022/08/20 06:43:38;;;;;;;12.93;3.55;;;27.40;72.70;;;;;;5070353;28;20074;-83
2022/08/20 06:46:05;;;;;;;15.50;4.57;;;27.40;72.50;;;;;;5068172;28;20463;-83
2022/08/20 06:48:31;;;;;;;12.70;4.13;;;27.30;72.70;;;;;;5068420;28;20073;-84
2022/08/20 06:50:57;;;;;;;12.63;3.65;;;27.40;73.00;;;;;;5068351;28;20060;-84
2022/08/20 06:53:22;;;;;;;15.32;3.63;;;27.30;73.30;;;;;;5068567;28;20028;-84
2022/08/20 06:55:53;;;;;;;9.77;2.90;;;27.40;73.60;;;;;;5067945;28;20097;-84
2022/08/20 06:58:21;;;;;;;16.40;4.10;;;27.40;74.30;;;;;;5067938;28;20523;-83
2022/08/20 07:00:47;;;;;;;17.13;4.85;;;27.40;75.60;;;;;;5067748;28;20025;-82
2022/08/20 07:03:14;;;;;;;17.05;4.40;;;27.40;75.70;;;;;;5068496;28;20040;-84
2022/08/20 07:05:41;;;;;;;16.48;4.32;;;27.40;75.20;;;;;;5068290;28;20016;-84
2022/08/20 07:08:17;;;;;;;14.43;4.30;;;27.30;74.40;;;;;;5067828;28;20052;-83
2022/08/20 07:10:43;;;;;;;9.50;3.78;;;27.30;74.60;;;;;;5068294;28;20036;-84
2022/08/20 07:13:10;;;;;;;16.98;4.97;;;27.30;75.10;;;;;;5069274;28;20025;-84
2022/08/20 07:15:37;;;;;;;15.30;3.92;;;27.20;75.50;;;;;;5069726;28;20059;-85
2022/08/20 07:18:05;;;;;;;13.65;3.75;;;27.20;75.60;;;;;;5069467;28;20024;-83
2022/08/20 07:20:32;;;;;;;20.30;4.63;;;27.30;75.20;;;;;;5067397;28;20120;-84
2022/08/20 07:22:59;;;;;;;13.85;4.38;;;27.30;74.70;;;;;;5071938;28;20024;-84
2022/08/20 07:25:25;;;;;;;10.88;4.50;;;27.30;74.40;;;;;;5088727;28;20454;-83
2022/08/20 07:27:51;;;;;;;15.82;4.35;;;27.30;75.00;;;;;;5088452;28;20024;-83
2022/08/20 07:33:05;;;;;;;14.02;3.85;;;27.20;75.70;;;;;;5069489;28;20420;-83
2022/08/20 07:35:30;;;;;;;8.93;3.88;;;27.30;75.70;;;;;;5068353;28;20032;-82
2022/08/20 07:37:56;;;;;;;14.13;3.55;;;27.40;75.60;;;;;;5068479;28;20103;-84
2022/08/20 07:40:27;;;;;;;7.05;2.95;;;27.40;75.30;;;;;;5067943;28;20051;-84
2022/08/20 07:42:54;;;;;;;12.60;3.80;;;27.40;75.50;;;;;;5067975;28;20028;-84
2022/08/20 07:45:21;;;;;;;10.57;3.70;;;27.50;76.00;;;;;;5067142;28;20502;-84
2022/08/20 07:47:48;;;;;;;24.05;4.10;;;27.50;75.30;;;;;;5069245;28;20020;-85
2022/08/20 07:50:17;;;;;;;11.18;3.63;;;27.60;75.30;;;;;;5067648;28;20493;-84
2022/08/20 07:52:44;;;;;;;10.90;3.15;;;27.70;75.50;;;;;;5067476;28;20454;-84
2022/08/20 07:55:11;;;;;;;6.05;3.13;;;27.70;75.70;;;;;;5067580;28;20448;-84
2022/08/20 07:57:37;;;;;;;12.00;4.05;;;27.80;75.60;;;;;;5068242;28;20029;-85
2022/08/20 08:00:07;;;;;;;18.33;4.85;;;27.80;75.50;;;;;;5067530;28;20153;-84
2022/08/20 08:02:33;;;;;;;15.75;4.22;;;27.90;75.40;;;;;;5082469;28;20024;-84
2022/08/20 08:05:00;;;;;;;14.77;4.82;;;27.90;75.90;;;;;;5088061;28;20470;-85
2022/08/20 08:07:27;;;;;;;12.05;4.28;;;28.00;75.80;;;;;;5096425;28;20406;-84
2022/08/20 08:09:54;;;;;;;13.00;4.20;;;28.00;76.00;;;;;;5068084;28;20035;-85
2022/08/20 08:12:21;;;;;;;10.23;3.78;;;28.10;76.40;;;;;;5067150;28;20067;-84
2022/08/20 08:14:48;;;;;;;8.90;2.95;;;28.10;76.40;;;;;;5067243;28;20033;-84
2022/08/20 08:17:16;;;;;;;9.65;3.65;;;28.20;75.90;;;;;;5069014;28;20051;-84
2022/08/20 08:19:48;;;;;;;12.23;4.00;;;28.20;76.30;;;;;;5069051;28;20505;-83
2022/08/20 08:22:17;;;;;;;11.05;3.22;;;28.30;75.30;;;;;;5066955;28;20024;-84
2022/08/20 08:24:45;;;;;;;7.15;3.30;;;28.40;74.80;;;;;;5069018;28;20556;-83
2022/08/20 08:27:17;;;;;;;6.93;3.47;;;28.50;74.30;;;;;;5067866;28;20485;-83
2022/08/20 08:29:44;;;;;;;14.10;3.47;;;28.70;74.10;;;;;;5067129;28;20098;-84
2022/08/20 08:32:10;;;;;;;9.75;3.60;;;28.70;74.00;;;;;;5067337;28;20033;-84
2022/08/20 08:34:36;;;;;;;10.82;4.35;;;28.90;73.40;;;;;;5066860;28;20085;-83
2022/08/20 08:37:03;;;;;;;11.93;3.40;;;29.10;72.40;;;;;;5068592;28;20052;-84
2022/08/20 08:39:29;;;;;;;17.92;3.78;;;29.20;71.90;;;;;;5067434;28;20133;-84
2022/08/20 08:41:57;;;;;;;15.57;4.00;;;29.20;71.80;;;;;;5067226;28;20685;-84
2022/08/20 08:44:34;;;;;;;18.17;3.90;;;29.10;72.00;;;;;;5066809;28;20028;-84
2022/08/20 08:47:17;;;;;;;8.25;3.67;;;29.10;71.50;;;;;;5087273;28;20137;-83
2022/08/20 08:49:43;;;;;;;13.15;3.95;;;28.90;71.90;;;;;;5079144;28;20025;-84
2022/08/20 08:52:17;;;;;;;9.50;3.88;;;28.80;72.10;;;;;;5067114;28;20382;-84
2022/08/20 08:54:46;;;;;;;7.82;2.97;;;28.80;72.40;;;;;;5067327;28;20024;-84
2022/08/20 08:57:11;;;;;;;16.00;3.85;;;28.70;72.50;;;;;;5073039;28;20031;-84
2022/08/20 08:59:38;;;;;;;15.70;4.65;;;28.70;73.00;;;;;;5090795;28;20028;-84
2022/08/20 09:02:05;;;;;;;19.63;4.65;;;28.60;72.80;;;;;;5090971;28;20128;-84
2022/08/20 09:04:34;;;;;;;20.25;4.13;;;28.50;73.20;;;;;;5090473;28;20503;-84
2022/08/20 09:07:03;;;;;;;14.05;4.45;;;28.40;73.50;;;;;;5069583;28;20025;-84
2022/08/20 09:09:34;;;;;;;16.73;3.95;;;28.10;73.30;;;;;;5068799;28;20033;-82
2022/08/20 09:12:07;;;;;;;17.48;2.70;;;27.90;74.00;;;;;;5069821;28;20044;-83
2022/08/20 09:14:33;;;;;;;15.77;3.55;;;27.50;75.30;;;;;;5069641;28;20514;-82
2022/08/20 09:16:59;;;;;;;19.75;3.17;;;26.90;77.00;;;;;;5070268;28;20024;-84
2022/08/20 09:19:25;;;;;;;27.77;3.22;;;26.40;79.10;;;;;;5070464;28;20020;-84
2022/08/20 09:21:50;;;;;;;18.23;3.35;;;26.00;81.90;;;;;;5070256;28;20507;-83
2022/08/20 09:24:16;;;;;;;15.23;2.50;;;25.60;83.40;;;;;;5070092;28;20024;-83
2022/08/20 09:26:42;;;;;;;20.08;3.72;;;25.30;84.70;;;;;;5070128;28;20793;-83
2022/08/20 09:29:08;;;;;;;18.02;2.85;;;25.20;86.10;;;;;;5069985;28;20033;-83
2022/08/20 09:31:34;;;;;;;14.35;2.97;;;25.20;86.70;;;;;;5068492;28;20040;-83
2022/08/20 09:34:00;;;;;;;15.13;2.85;;;25.30;87.20;;;;;;5069620;28;20596;-83
2022/08/20 09:36:26;;;;;;;20.05;3.05;;;25.80;86.80;;;;;;5070625;28;20037;-83
2022/08/20 09:38:53;;;;;;;10.18;3.08;;;26.60;85.40;;;;;;5071246;28;20107;-83
2022/08/20 09:41:18;;;;;;;16.02;3.42;;;27.20;84.10;;;;;;5071118;28;20031;-84
2022/08/20 09:43:44;;;;;;;14.80;2.60;;;27.40;82.60;;;;;;5069968;28;20028;-83
2022/08/20 09:46:09;;;;;;;10.65;2.75;;;27.40;81.80;;;;;;5069294;28;20024;-84
2022/08/20 09:48:35;;;;;;;15.00;3.13;;;27.30;81.80;;;;;;5072054;28;20039;-82
2022/08/20 09:51:01;;;;;;;12.82;2.20;;;27.00;81.30;;;;;;5081285;28;20166;-82
2022/08/20 09:53:28;;;;;;;22.17;3.38;;;26.70;82.30;;;;;;5083016;28;20040;-84
2022/08/20 09:55:54;;;;;;;10.30;2.80;;;26.50;82.90;;;;;;5073306;28;20028;-82
2022/08/20 09:58:45;;;;;;;16.40;2.92;;;26.20;84.00;;;;;;5070078;28;20086;-82
2022/08/20 10:01:13;;;;;;;18.63;3.33;;;26.00;85.20;;;;;;5070730;28;20051;-83
2022/08/20 10:03:41;;;;;;;14.77;2.60;;;25.50;86.20;;;;;;5069358;28;20035;-83
2022/08/20 10:06:06;;;;;;;10.55;2.53;;;25.20;87.50;;;;;;5069456;28;20060;-84
2022/08/20 10:08:32;;;;;;;13.40;2.65;;;25.10;88.70;;;;;;5085131;28;20600;-83
2022/08/20 10:10:58;;;;;;;16.75;2.65;;;25.00;89.50;;;;;;5089671;28;20035;-83
2022/08/20 10:13:23;;;;;;;18.42;3.55;;;25.00;90.10;;;;;;5090479;28;20024;-83
2022/08/20 10:15:49;;;;;;;14.32;4.22;;;25.00;90.30;;;;;;5089791;28;20133;-84
2022/08/20 10:18:15;;;;;;;13.35;3.53;;;24.90;90.70;;;;;;5089779;28;20518;-84
2022/08/20 10:20:41;;;;;;;11.23;2.67;;;24.90;91.10;;;;;;5089717;28;20035;-82
2022/08/20 10:23:07;;;;;;;13.18;2.95;;;24.90;91.40;;;;;;5089686;28;20020;-84
2022/08/20 10:25:33;;;;;;;13.73;2.97;;;24.80;91.90;;;;;;5100131;28;20469;-84
2022/08/20 10:27:58;;;;;;;11.18;2.53;;;24.60;92.10;;;;;;5069102;28;20094;-84
2022/08/20 10:30:25;;;;;;;15.13;2.65;;;24.40;92.40;;;;;;5069072;28;20040;-83
2022/08/20 10:32:50;;;;;;;10.57;2.58;;;24.30;93.00;;;;;;5068661;28;20046;-84
2022/08/20 10:35:16;;;;;;;16.38;3.25;;;24.20;93.50;;;;;;5069411;28;20021;-83
2022/08/20 10:37:42;;;;;;;10.95;2.83;;;24.10;94.00;;;;;;5068873;28;20086;-84
2022/08/20 10:40:08;;;;;;;11.10;2.80;;;24.00;94.50;;;;;;5068948;28;20024;-84
2022/08/20 10:42:34;;;;;;;11.30;2.00;;;23.90;95.30;;;;;;5069819;28;20031;-83
2022/08/20 10:45:00;;;;;;;8.35;2.20;;;23.80;96.50;;;;;;5069119;28;20017;-84
2022/08/20 10:47:28;;;;;;;16.48;2.30;;;23.80;97.20;;;;;;5068439;28;20421;-84
2022/08/20 10:49:57;;;;;;;14.27;2.90;;;23.80;98.30;;;;;;5069630;28;20024;-85
2022/08/20 10:52:23;;;;;;;10.40;2.17;;;23.90;99.60;;;;;;5069409;28;20063;-84
2022/08/20 10:54:50;;;;;;;8.38;1.85;;;23.90;99.90;;;;;;5086338;28;20020;-83
2022/08/20 10:57:19;;;;;;;14.05;3.28;;;24.00;99.90;;;;;;5089685;28;20188;-83
2022/08/20 10:59:46;;;;;;;6.15;1.77;;;24.00;99.90;;;;;;5090113;28;20024;-84
2022/08/20 11:02:12;;;;;;;10.35;2.42;;;24.00;99.90;;;;;;5076418;28;20454;-84
2022/08/20 11:04:39;;;;;;;8.27;2.20;;;24.10;99.80;;;;;;5069533;28;20024;-84
2022/08/20 11:07:13;;;;;;;13.10;1.83;;;24.10;99.30;;;;;;5069212;28;20062;-84
2022/08/20 11:09:38;;;;;;;7.13;1.50;;;24.20;98.60;;;;;;5069779;28;20493;-86
2022/08/20 11:12:04;;;;;;;8.52;2.30;;;24.20;98.90;;;;;;5069642;28;20047;-82
2022/08/20 11:14:30;;;;;;;11.55;1.83;;;24.40;99.20;;;;;;5085254;28;20020;-85
2022/08/20 11:16:56;;;;;;;7.35;2.28;;;24.60;99.60;;;;;;5089688;28;20118;-84
2022/08/20 11:19:21;;;;;;;8.95;2.60;;;24.80;99.70;;;;;;5089551;28;20024;-84
2022/08/20 11:21:47;;;;;;;12.90;2.55;;;25.00;99.40;;;;;;5080392;28;20020;-84
2022/08/20 11:24:12;;;;;;;9.75;3.08;;;25.00;98.10;;;;;;5082672;28;20032;-84
2022/08/20 11:26:39;;;;;;;13.65;2.47;;;25.20;97.30;;;;;;5088960;28;20389;-84
2022/08/20 11:29:04;;;;;;;12.30;3.05;;;25.30;97.10;;;;;;5086352;28;20075;-84
2022/08/20 11:31:30;;;;;;;8.13;1.85;;;25.40;95.40;;;;;;5068534;28;20064;-84
2022/08/20 11:33:56;;;;;;;5.65;1.95;;;25.50;95.60;;;;;;5068545;28;20028;-84
2022/08/20 11:36:25;;;;;;;5.95;1.40;;;25.50;95.40;;;;;;5068074;28;20036;-84
2022/08/20 11:38:51;;;;;;;7.60;1.45;;;25.60;95.60;;;;;;5068377;28;20075;-84
2022/08/20 11:41:17;;;;;;;9.18;1.35;;;25.60;95.50;;;;;;5069059;28;20060;-84
2022/08/20 11:43:43;;;;;;;9.00;2.03;;;25.60;95.80;;;;;;5068207;28;20238;-85
2022/08/20 11:46:08;;;;;;;7.40;2.15;;;25.60;96.30;;;;;;5068450;28;20100;-84
2022/08/20 11:48:34;;;;;;;8.40;2.80;;;25.70;96.30;;;;;;5067935;28;20518;-84
2022/08/20 11:50:59;;;;;;;7.68;3.05;;;25.70;95.80;;;;;;5067794;28;20035;-83
2022/08/20 11:53:25;;;;;;;8.18;1.92;;;25.70;95.50;;;;;;5067623;28;20093;-84
2022/08/20 11:55:51;;;;;;;8.73;3.45;;;25.70;95.60;;;;;;5067571;28;20024;-84
2022/08/20 11:58:17;;;;;;;10.48;3.83;;;25.70;95.50;;;;;;5067484;28;20115;-83
2022/08/20 12:00:43;;;;;;;10.68;4.88;;;25.70;94.60;;;;;;5067744;28;20063;-83
2022/08/20 12:03:09;;;;;;;6.97;2.65;;;25.80;94.50;;;;;;5069351;28;20055;-83
2022/08/20 12:05:36;;;;;;;6.07;1.92;;;25.80;94.30;;;;;;5067041;28;20666;-83
2022/08/20 12:08:02;;;;;;;8.40;1.77;;;26.00;94.10;;;;;;5067930;28;20031;-82
2022/08/20 12:10:29;;;;;;;7.90;2.03;;;26.20;93.80;;;;;;5066824;28;20598;-84
2022/08/20 12:12:55;;;;;;;7.32;1.52;;;26.30;93.90;;;;;;5067602;28;20035;-84
2022/08/20 12:15:20;;;;;;;6.55;2.00;;;26.50;93.70;;;;;;5066827;28;20237;-85
2022/08/20 12:17:46;;;;;;;4.25;1.50;;;26.70;93.50;;;;;;5067311;28;20113;-84
2022/08/20 12:20:13;;;;;;;8.52;2.17;;;26.80;93.00;;;;;;5067319;28;20055;-83
2022/08/20 12:22:39;;;;;;;10.23;1.92;;;27.00;92.80;;;;;;5067171;28;20127;-84
2022/08/20 12:25:07;;;;;;;7.38;1.65;;;27.10;92.20;;;;;;5068247;28;20052;-84
2022/08/20 12:27:33;;;;;;;6.22;1.77;;;27.30;91.70;;;;;;5065617;28;20020;-84
2022/08/20 12:30:02;;;;;;;12.50;2.03;;;27.40;91.10;;;;;;5064943;28;20114;-82
2022/08/20 12:32:30;;;;;;;13.30;2.58;;;27.40;90.60;;;;;;5064401;28;20044;-82
2022/08/20 12:34:56;;;;;;;8.57;2.45;;;27.40;90.10;;;;;;5071505;28;20036;-83
2022/08/20 12:37:26;;;;;;;10.27;2.15;;;27.20;89.40;;;;;;5057840;28;20925;-82
2022/08/20 12:39:55;;;;;;;5.32;2.05;;;27.10;89.70;;;;;;5080526;28;20058;-82
2022/08/20 12:42:21;;;;;;;4.68;1.70;;;27.10;89.30;;;;;;5074398;28;20033;-83
2022/08/20 12:44:47;;;;;;;11.45;2.15;;;27.00;89.00;;;;;;5065734;28;20032;-82
2022/08/20 12:47:16;;;;;;;5.35;1.20;;;27.00;89.40;;;;;;5072158;28;20043;-82